sensor_id;sensor_type;location;lat;lon;timestamp;P1;durP1;ratioP1;P2;durP2;ratioP2
42260;SDS011;27926;48.062;7.474;2022-09-21T00:00:25;3.47;;;1.65;;
42260;SDS011;27926;48.062;7.474;2022-09-21T00:02:53;9.88;;;2.03;;
42260;SDS011;27926;48.062;7.474;2022-09-21T00:05:19;8.20;;;2.33;;
42260;SDS011;27926;48.062;7.474;2022-09-21T00:07:43;9.45;;;1.98;;
42260;SDS011;27926;48.062;7.474;2022-09-21T00:10:08;3.50;;;1.60;;
42260;SDS011;27926;48.062;7.474;2022-09-21T00:12:33;9.70;;;3.30;;
42260;SDS011;27926;48.062;7.474;2022-09-21T00:14:58;10.50;;;2.50;;
42260;SDS011;27926;48.062;7.474;2022-09-21T00:17:23;6.50;;;2.40;;
42260;SDS011;27926;48.062;7.474;2022-09-21T00:19:48;5.82;;;2.97;;
42260;SDS011;27926;48.062;7.474;2022-09-21T00:22:12;3.10;;;2.13;;
42260;SDS011;27926;48.062;7.474;2022-09-21T00:24:37;8.65;;;3.15;;
42260;SDS011;27926;48.062;7.474;2022-09-21T00:27:01;6.88;;;3.40;;
42260;SDS011;27926;48.062;7.474;2022-09-21T00:29:26;9.88;;;4.18;;
42260;SDS011;27926;48.062;7.474;2022-09-21T00:31:51;7.93;;;4.88;;
42260;SDS011;27926;48.062;7.474;2022-09-21T00:34:18;16.77;;;5.25;;
42260;SDS011;27926;48.062;7.474;2022-09-21T00:36:42;10.82;;;5.38;;
42260;SDS011;27926;48.062;7.474;2022-09-21T00:39:08;10.38;;;5.07;;
42260;SDS011;27926;48.062;7.474;2022-09-21T00:41:32;13.03;;;4.87;;
42260;SDS011;27926;48.062;7.474;2022-09-21T00:44:15;13.32;;;5.05;;
42260;SDS011;27926;48.062;7.474;2022-09-21T00:46:53;9.45;;;5.25;;
42260;SDS011;27926;48.062;7.474;2022-09-21T00:49:21;8.35;;;4.78;;
42260;SDS011;27926;48.062;7.474;2022-09-21T00:51:47;16.70;;;6.30;;
42260;SDS011;27926;48.062;7.474;2022-09-21T00:54:16;10.18;;;5.07;;
42260;SDS011;27926;48.062;7.474;2022-09-21T00:56:48;15.13;;;5.03;;
42260;SDS011;27926;48.062;7.474;2022-09-21T00:59:13;5.93;;;4.55;;
42260;SDS011;27926;48.062;7.474;2022-09-21T01:01:41;7.43;;;4.40;;
42260;SDS011;27926;48.062;7.474;2022-09-21T01:04:06;11.02;;;5.25;;
42260;SDS011;27926;48.062;7.474;2022-09-21T01:06:32;7.07;;;4.57;;
42260;SDS011;27926;48.062;7.474;2022-09-21T01:08:57;11.75;;;5.18;;
42260;SDS011;27926;48.062;7.474;2022-09-21T01:11:30;12.35;;;9.95;;
42260;SDS011;27926;48.062;7.474;2022-09-21T01:25:16;4.60;;;3.30;;
42260;SDS011;27926;48.062;7.474;2022-09-21T01:28:20;10.40;;;3.42;;
42260;SDS011;27926;48.062;7.474;2022-09-21T01:30:57;6.68;;;3.40;;
42260;SDS011;27926;48.062;7.474;2022-09-21T01:33:31;11.13;;;8.30;;
42260;SDS011;27926;48.062;7.474;2022-09-21T01:36:00;8.20;;;6.05;;
42260;SDS011;27926;48.062;7.474;2022-09-21T01:38:52;8.98;;;4.82;;
42260;SDS011;27926;48.062;7.474;2022-09-21T01:41:21;16.02;;;14.10;;
42260;SDS011;27926;48.062;7.474;2022-09-21T01:43:50;10.88;;;5.82;;
42260;SDS011;27926;48.062;7.474;2022-09-21T01:46:19;10.02;;;6.63;;
42260;SDS011;27926;48.062;7.474;2022-09-21T01:48:46;7.63;;;4.72;;
42260;SDS011;27926;48.062;7.474;2022-09-21T01:51:15;13.60;;;10.50;;
42260;SDS011;27926;48.062;7.474;2022-09-21T01:53:44;7.43;;;6.63;;
42260;SDS011;27926;48.062;7.474;2022-09-21T01:56:23;7.95;;;5.25;;
42260;SDS011;27926;48.062;7.474;2022-09-21T01:59:16;10.20;;;4.20;;
42260;SDS011;27926;48.062;7.474;2022-09-21T02:01:50;8.63;;;4.15;;
42260;SDS011;27926;48.062;7.474;2022-09-21T02:04:19;6.03;;;3.72;;
42260;SDS011;27926;48.062;7.474;2022-09-21T02:06:44;7.45;;;4.03;;
42260;SDS011;27926;48.062;7.474;2022-09-21T02:09:10;6.43;;;3.88;;
42260;SDS011;27926;48.062;7.474;2022-09-21T02:11:36;12.27;;;4.47;;
42260;SDS011;27926;48.062;7.474;2022-09-21T02:14:05;6.60;;;3.63;;
42260;SDS011;27926;48.062;7.474;2022-09-21T02:21:49;10.02;;;3.83;;
42260;SDS011;27926;48.062;7.474;2022-09-21T02:24:26;11.27;;;3.00;;
42260;SDS011;27926;48.062;7.474;2022-09-21T02:34:46;4.72;;;2.60;;
42260;SDS011;27926;48.062;7.474;2022-09-21T02:40:14;10.20;;;2.85;;
42260;SDS011;27926;48.062;7.474;2022-09-21T02:42:55;3.75;;;2.42;;
42260;SDS011;27926;48.062;7.474;2022-09-21T02:45:24;5.10;;;2.63;;
42260;SDS011;27926;48.062;7.474;2022-09-21T02:50:49;4.07;;;2.00;;
42260;SDS011;27926;48.062;7.474;2022-09-21T02:53:18;6.80;;;2.70;;
42260;SDS011;27926;48.062;7.474;2022-09-21T02:55:57;4.30;;;2.30;;
42260;SDS011;27926;48.062;7.474;2022-09-21T02:58:30;3.63;;;2.03;;
42260;SDS011;27926;48.062;7.474;2022-09-21T03:00:57;5.40;;;2.47;;
42260;SDS011;27926;48.062;7.474;2022-09-21T03:03:25;3.28;;;2.40;;
42260;SDS011;27926;48.062;7.474;2022-09-21T03:05:53;6.43;;;2.78;;
42260;SDS011;27926;48.062;7.474;2022-09-21T03:08:19;5.13;;;2.25;;
42260;SDS011;27926;48.062;7.474;2022-09-21T03:10:44;7.72;;;3.97;;
42260;SDS011;27926;48.062;7.474;2022-09-21T03:13:09;4.85;;;3.22;;
42260;SDS011;27926;48.062;7.474;2022-09-21T03:15:35;16.35;;;2.78;;
42260;SDS011;27926;48.062;7.474;2022-09-21T03:18:01;3.28;;;2.30;;
42260;SDS011;27926;48.062;7.474;2022-09-21T03:20:28;3.67;;;2.40;;
42260;SDS011;27926;48.062;7.474;2022-09-21T03:22:55;5.43;;;2.33;;
42260;SDS011;27926;48.062;7.474;2022-09-21T03:25:20;7.95;;;2.40;;
42260;SDS011;27926;48.062;7.474;2022-09-21T03:27:44;4.05;;;2.55;;
42260;SDS011;27926;48.062;7.474;2022-09-21T03:30:09;7.93;;;2.72;;
42260;SDS011;27926;48.062;7.474;2022-09-21T03:32:34;3.37;;;2.47;;
42260;SDS011;27926;48.062;7.474;2022-09-21T03:34:58;2.92;;;2.08;;
42260;SDS011;27926;48.062;7.474;2022-09-21T03:37:23;7.60;;;2.15;;
42260;SDS011;27926;48.062;7.474;2022-09-21T03:39:48;5.80;;;2.30;;
42260;SDS011;27926;48.062;7.474;2022-09-21T03:42:12;3.63;;;2.15;;
42260;SDS011;27926;48.062;7.474;2022-09-21T03:44:37;3.35;;;2.08;;
42260;SDS011;27926;48.062;7.474;2022-09-21T03:47:01;2.50;;;1.95;;
42260;SDS011;27926;48.062;7.474;2022-09-21T03:49:27;4.00;;;2.47;;
42260;SDS011;27926;48.062;7.474;2022-09-21T03:51:52;4.10;;;2.22;;
42260;SDS011;27926;48.062;7.474;2022-09-21T03:54:16;4.20;;;2.38;;
42260;SDS011;27926;48.062;7.474;2022-09-21T03:56:41;5.63;;;2.13;;
42260;SDS011;27926;48.062;7.474;2022-09-21T03:59:06;3.00;;;2.20;;
42260;SDS011;27926;48.062;7.474;2022-09-21T04:01:30;7.15;;;2.00;;
42260;SDS011;27926;48.062;7.474;2022-09-21T04:03:55;5.53;;;2.50;;
42260;SDS011;27926;48.062;7.474;2022-09-21T04:06:20;7.50;;;2.67;;
42260;SDS011;27926;48.062;7.474;2022-09-21T04:08:45;6.45;;;2.70;;
42260;SDS011;27926;48.062;7.474;2022-09-21T04:11:10;10.95;;;3.67;;
42260;SDS011;27926;48.062;7.474;2022-09-21T04:13:34;5.00;;;2.87;;
42260;SDS011;27926;48.062;7.474;2022-09-21T04:15:59;5.15;;;3.22;;
42260;SDS011;27926;48.062;7.474;2022-09-21T04:18:24;7.60;;;5.05;;
42260;SDS011;27926;48.062;7.474;2022-09-21T04:20:48;4.80;;;3.10;;
42260;SDS011;27926;48.062;7.474;2022-09-21T04:23:13;6.15;;;3.25;;
42260;SDS011;27926;48.062;7.474;2022-09-21T04:25:37;4.40;;;2.65;;
42260;SDS011;27926;48.062;7.474;2022-09-21T04:28:02;11.65;;;4.15;;
42260;SDS011;27926;48.062;7.474;2022-09-21T04:30:27;4.55;;;2.92;;
42260;SDS011;27926;48.062;7.474;2022-09-21T04:32:52;7.15;;;2.40;;
42260;SDS011;27926;48.062;7.474;2022-09-21T04:35:16;2.85;;;1.92;;
42260;SDS011;27926;48.062;7.474;2022-09-21T04:37:41;4.20;;;2.10;;
42260;SDS011;27926;48.062;7.474;2022-09-21T04:40:06;2.80;;;1.90;;
42260;SDS011;27926;48.062;7.474;2022-09-21T04:42:31;4.90;;;2.67;;
42260;SDS011;27926;48.062;7.474;2022-09-21T04:44:56;5.97;;;1.95;;
42260;SDS011;27926;48.062;7.474;2022-09-21T04:47:20;4.80;;;1.90;;
42260;SDS011;27926;48.062;7.474;2022-09-21T04:49:47;5.85;;;1.98;;
42260;SDS011;27926;48.062;7.474;2022-09-21T04:52:12;6.25;;;2.45;;
42260;SDS011;27926;48.062;7.474;2022-09-21T04:54:36;9.20;;;2.85;;
42260;SDS011;27926;48.062;7.474;2022-09-21T04:57:01;2.78;;;1.98;;
42260;SDS011;27926;48.062;7.474;2022-09-21T04:59:25;4.30;;;2.13;;
42260;SDS011;27926;48.062;7.474;2022-09-21T05:01:50;5.95;;;2.55;;
42260;SDS011;27926;48.062;7.474;2022-09-21T05:04:15;4.35;;;2.42;;
42260;SDS011;27926;48.062;7.474;2022-09-21T05:06:39;2.90;;;2.47;;
42260;SDS011;27926;48.062;7.474;2022-09-21T05:09:04;9.18;;;3.17;;
42260;SDS011;27926;48.062;7.474;2022-09-21T05:11:47;5.65;;;4.15;;
42260;SDS011;27926;48.062;7.474;2022-09-21T05:14:11;9.30;;;3.13;;
42260;SDS011;27926;48.062;7.474;2022-09-21T05:16:36;15.68;;;5.72;;
42260;SDS011;27926;48.062;7.474;2022-09-21T05:19:01;6.32;;;3.92;;
42260;SDS011;27926;48.062;7.474;2022-09-21T05:21:26;4.30;;;2.88;;
42260;SDS011;27926;48.062;7.474;2022-09-21T05:23:51;7.88;;;2.83;;
42260;SDS011;27926;48.062;7.474;2022-09-21T05:26:20;7.93;;;2.63;;
42260;SDS011;27926;48.062;7.474;2022-09-21T05:28:45;6.28;;;2.92;;
42260;SDS011;27926;48.062;7.474;2022-09-21T05:33:41;12.88;;;4.32;;
42260;SDS011;27926;48.062;7.474;2022-09-21T05:36:36;8.98;;;4.25;;
42260;SDS011;27926;48.062;7.474;2022-09-21T05:39:02;12.10;;;5.43;;
42260;SDS011;27926;48.062;7.474;2022-09-21T05:41:27;13.13;;;6.63;;
42260;SDS011;27926;48.062;7.474;2022-09-21T05:43:52;11.18;;;6.20;;
42260;SDS011;27926;48.062;7.474;2022-09-21T05:46:18;19.75;;;8.98;;
42260;SDS011;27926;48.062;7.474;2022-09-21T05:48:59;18.27;;;8.57;;
42260;SDS011;27926;48.062;7.474;2022-09-21T05:51:32;14.80;;;7.55;;
42260;SDS011;27926;48.062;7.474;2022-09-21T05:59:11;12.60;;;6.13;;
42260;SDS011;27926;48.062;7.474;2022-09-21T06:01:57;14.35;;;7.05;;
42260;SDS011;27926;48.062;7.474;2022-09-21T06:04:41;13.48;;;6.53;;
42260;SDS011;27926;48.062;7.474;2022-09-21T06:07:06;11.45;;;6.45;;
42260;SDS011;27926;48.062;7.474;2022-09-21T06:09:30;12.10;;;6.38;;
42260;SDS011;27926;48.062;7.474;2022-09-21T06:11:55;11.88;;;6.50;;
42260;SDS011;27926;48.062;7.474;2022-09-21T06:14:20;15.55;;;7.07;;
42260;SDS011;27926;48.062;7.474;2022-09-21T06:16:48;14.43;;;8.10;;
42260;SDS011;27926;48.062;7.474;2022-09-21T06:19:13;18.15;;;8.68;;
42260;SDS011;27926;48.062;7.474;2022-09-21T06:21:38;19.00;;;8.27;;
42260;SDS011;27926;48.062;7.474;2022-09-21T06:24:02;19.75;;;7.90;;
42260;SDS011;27926;48.062;7.474;2022-09-21T06:26:27;18.50;;;7.57;;
42260;SDS011;27926;48.062;7.474;2022-09-21T06:28:52;12.25;;;7.05;;
42260;SDS011;27926;48.062;7.474;2022-09-21T06:31:16;22.90;;;7.65;;
42260;SDS011;27926;48.062;7.474;2022-09-21T06:33:41;11.82;;;6.93;;
42260;SDS011;27926;48.062;7.474;2022-09-21T06:36:05;27.60;;;7.45;;
42260;SDS011;27926;48.062;7.474;2022-09-21T06:38:30;15.48;;;8.27;;
42260;SDS011;27926;48.062;7.474;2022-09-21T06:40:59;17.83;;;7.60;;
42260;SDS011;27926;48.062;7.474;2022-09-21T06:43:25;17.80;;;7.30;;
42260;SDS011;27926;48.062;7.474;2022-09-21T06:45:54;14.98;;;7.80;;
42260;SDS011;27926;48.062;7.474;2022-09-21T06:48:19;14.95;;;8.35;;
42260;SDS011;27926;48.062;7.474;2022-09-21T06:50:45;13.82;;;7.65;;
42260;SDS011;27926;48.062;7.474;2022-09-21T06:53:10;17.50;;;7.22;;
42260;SDS011;27926;48.062;7.474;2022-09-21T06:55:34;12.45;;;8.27;;
42260;SDS011;27926;48.062;7.474;2022-09-21T06:57:59;14.38;;;8.02;;
42260;SDS011;27926;48.062;7.474;2022-09-21T07:00:25;14.10;;;8.05;;
42260;SDS011;27926;48.062;7.474;2022-09-21T07:02:51;18.50;;;8.65;;
42260;SDS011;27926;48.062;7.474;2022-09-21T07:05:15;18.60;;;7.68;;
42260;SDS011;27926;48.062;7.474;2022-09-21T07:07:40;15.90;;;8.55;;
42260;SDS011;27926;48.062;7.474;2022-09-21T07:10:05;15.32;;;8.15;;
42260;SDS011;27926;48.062;7.474;2022-09-21T07:12:31;19.30;;;7.90;;
42260;SDS011;27926;48.062;7.474;2022-09-21T07:14:59;22.90;;;8.93;;
42260;SDS011;27926;48.062;7.474;2022-09-21T07:17:34;14.13;;;7.43;;
42260;SDS011;27926;48.062;7.474;2022-09-21T07:20:00;22.70;;;7.90;;
42260;SDS011;27926;48.062;7.474;2022-09-21T07:22:27;20.45;;;8.88;;
42260;SDS011;27926;48.062;7.474;2022-09-21T07:24:55;16.98;;;7.70;;
42260;SDS011;27926;48.062;7.474;2022-09-21T07:27:20;16.60;;;8.38;;
42260;SDS011;27926;48.062;7.474;2022-09-21T07:29:45;12.60;;;7.40;;
42260;SDS011;27926;48.062;7.474;2022-09-21T07:32:11;17.95;;;8.20;;
42260;SDS011;27926;48.062;7.474;2022-09-21T07:34:36;25.60;;;8.75;;
42260;SDS011;27926;48.062;7.474;2022-09-21T07:37:01;20.85;;;7.78;;
42260;SDS011;27926;48.062;7.474;2022-09-21T07:39:25;16.20;;;8.15;;
42260;SDS011;27926;48.062;7.474;2022-09-21T07:41:50;21.77;;;8.68;;
42260;SDS011;27926;48.062;7.474;2022-09-21T07:44:15;20.90;;;7.32;;
42260;SDS011;27926;48.062;7.474;2022-09-21T07:46:39;10.32;;;7.03;;
42260;SDS011;27926;48.062;7.474;2022-09-21T07:49:05;12.35;;;7.35;;
42260;SDS011;27926;48.062;7.474;2022-09-21T07:51:29;12.32;;;6.97;;
42260;SDS011;27926;48.062;7.474;2022-09-21T07:53:55;17.35;;;7.53;;
42260;SDS011;27926;48.062;7.474;2022-09-21T07:56:19;14.88;;;7.15;;
42260;SDS011;27926;48.062;7.474;2022-09-21T07:58:44;10.52;;;6.25;;
42260;SDS011;27926;48.062;7.474;2022-09-21T08:01:27;16.08;;;8.25;;
42260;SDS011;27926;48.062;7.474;2022-09-21T08:03:53;18.65;;;7.28;;
42260;SDS011;27926;48.062;7.474;2022-09-21T08:06:20;14.18;;;6.93;;
42260;SDS011;27926;48.062;7.474;2022-09-21T08:08:45;15.73;;;6.95;;
42260;SDS011;27926;48.062;7.474;2022-09-21T08:11:11;16.42;;;7.53;;
42260;SDS011;27926;48.062;7.474;2022-09-21T08:13:36;14.95;;;7.00;;
42260;SDS011;27926;48.062;7.474;2022-09-21T08:16:01;14.40;;;7.00;;
42260;SDS011;27926;48.062;7.474;2022-09-21T08:18:26;19.90;;;8.48;;
42260;SDS011;27926;48.062;7.474;2022-09-21T08:20:52;18.23;;;7.90;;
42260;SDS011;27926;48.062;7.474;2022-09-21T08:23:18;16.52;;;7.57;;
42260;SDS011;27926;48.062;7.474;2022-09-21T08:25:43;11.02;;;6.03;;
42260;SDS011;27926;48.062;7.474;2022-09-21T08:28:08;22.15;;;6.57;;
42260;SDS011;27926;48.062;7.474;2022-09-21T08:30:32;17.63;;;5.80;;
42260;SDS011;27926;48.062;7.474;2022-09-21T08:32:57;12.07;;;6.53;;
42260;SDS011;27926;48.062;7.474;2022-09-21T08:35:22;16.20;;;6.88;;
42260;SDS011;27926;48.062;7.474;2022-09-21T08:37:47;18.15;;;6.82;;
42260;SDS011;27926;48.062;7.474;2022-09-21T08:40:13;15.35;;;6.15;;
42260;SDS011;27926;48.062;7.474;2022-09-21T08:45:05;12.43;;;5.80;;
42260;SDS011;27926;48.062;7.474;2022-09-21T08:47:41;15.70;;;5.10;;
42260;SDS011;27926;48.062;7.474;2022-09-21T08:53:09;15.25;;;4.88;;
42260;SDS011;27926;48.062;7.474;2022-09-21T08:55:39;10.70;;;4.53;;
42260;SDS011;27926;48.062;7.474;2022-09-21T08:58:08;11.30;;;4.47;;
42260;SDS011;27926;48.062;7.474;2022-09-21T09:00:44;11.30;;;4.40;;
42260;SDS011;27926;48.062;7.474;2022-09-21T09:03:31;11.88;;;4.97;;
42260;SDS011;27926;48.062;7.474;2022-09-21T09:19:48;11.82;;;3.72;;
42260;SDS011;27926;48.062;7.474;2022-09-21T09:22:26;10.75;;;3.53;;
42260;SDS011;27926;48.062;7.474;2022-09-21T09:24:59;5.97;;;3.83;;
42260;SDS011;27926;48.062;7.474;2022-09-21T09:27:40;9.45;;;4.05;;
42260;SDS011;27926;48.062;7.474;2022-09-21T09:32:52;8.90;;;3.33;;
42260;SDS011;27926;48.062;7.474;2022-09-21T09:35:38;8.35;;;3.85;;
42260;SDS011;27926;48.062;7.474;2022-09-21T09:38:13;8.77;;;3.35;;
42260;SDS011;27926;48.062;7.474;2022-09-21T09:46:19;7.15;;;3.08;;
42260;SDS011;27926;48.062;7.474;2022-09-21T09:51:47;7.10;;;2.78;;
42260;SDS011;27926;48.062;7.474;2022-09-21T09:54:14;7.88;;;3.40;;
42260;SDS011;27926;48.062;7.474;2022-09-21T09:56:41;8.95;;;3.15;;
42260;SDS011;27926;48.062;7.474;2022-09-21T09:59:09;6.28;;;2.65;;
42260;SDS011;27926;48.062;7.474;2022-09-21T10:01:47;4.50;;;2.15;;
42260;SDS011;27926;48.062;7.474;2022-09-21T10:04:23;6.43;;;2.75;;
42260;SDS011;27926;48.062;7.474;2022-09-21T10:06:48;7.70;;;2.90;;
42260;SDS011;27926;48.062;7.474;2022-09-21T10:09:32;2.80;;;2.30;;
42260;SDS011;27926;48.062;7.474;2022-09-21T10:11:59;10.05;;;2.70;;
42260;SDS011;27926;48.062;7.474;2022-09-21T10:14:40;6.47;;;2.30;;
42260;SDS011;27926;48.062;7.474;2022-09-21T10:17:12;3.65;;;1.85;;
42260;SDS011;27926;48.062;7.474;2022-09-21T10:19:41;11.70;;;2.38;;
42260;SDS011;27926;48.062;7.474;2022-09-21T10:22:06;6.35;;;2.15;;
42260;SDS011;27926;48.062;7.474;2022-09-21T10:24:37;6.22;;;2.03;;
42260;SDS011;27926;48.062;7.474;2022-09-21T10:29:45;7.63;;;2.20;;
42260;SDS011;27926;48.062;7.474;2022-09-21T10:34:36;3.50;;;1.77;;
42260;SDS011;27926;48.062;7.474;2022-09-21T10:37:02;5.70;;;2.45;;
42260;SDS011;27926;48.062;7.474;2022-09-21T10:39:47;2.25;;;1.52;;
42260;SDS011;27926;48.062;7.474;2022-09-21T10:42:12;7.10;;;2.42;;
42260;SDS011;27926;48.062;7.474;2022-09-21T10:44:41;3.30;;;1.33;;
42260;SDS011;27926;48.062;7.474;2022-09-21T10:47:17;2.67;;;1.73;;
42260;SDS011;27926;48.062;7.474;2022-09-21T10:49:49;5.75;;;1.58;;
42260;SDS011;27926;48.062;7.474;2022-09-21T10:52:17;9.20;;;2.10;;
42260;SDS011;27926;48.062;7.474;2022-09-21T10:54:46;7.32;;;2.38;;
42260;SDS011;27926;48.062;7.474;2022-09-21T10:57:15;5.47;;;1.90;;
42260;SDS011;27926;48.062;7.474;2022-09-21T10:59:43;9.30;;;2.63;;
42260;SDS011;27926;48.062;7.474;2022-09-21T11:04:52;6.40;;;1.88;;
42260;SDS011;27926;48.062;7.474;2022-09-21T11:07:31;7.95;;;1.85;;
42260;SDS011;27926;48.062;7.474;2022-09-21T11:10:10;4.22;;;1.63;;
42260;SDS011;27926;48.062;7.474;2022-09-21T11:18:35;4.90;;;1.58;;
42260;SDS011;27926;48.062;7.474;2022-09-21T11:26:43;8.52;;;2.03;;
42260;SDS011;27926;48.062;7.474;2022-09-21T11:32:08;3.90;;;1.17;;
42260;SDS011;27926;48.062;7.474;2022-09-21T11:35:01;3.58;;;1.67;;
42260;SDS011;27926;48.062;7.474;2022-09-21T11:51:56;2.55;;;1.40;;
42260;SDS011;27926;48.062;7.474;2022-09-21T12:00:18;1.98;;;1.05;;
42260;SDS011;27926;48.062;7.474;2022-09-21T12:08:13;3.67;;;1.38;;
42260;SDS011;27926;48.062;7.474;2022-09-21T12:16:05;2.40;;;1.00;;
42260;SDS011;27926;48.062;7.474;2022-09-21T12:18:38;5.13;;;1.27;;
42260;SDS011;27926;48.062;7.474;2022-09-21T12:23:49;5.45;;;1.23;;
42260;SDS011;27926;48.062;7.474;2022-09-21T12:26:21;4.28;;;1.30;;
42260;SDS011;27926;48.062;7.474;2022-09-21T12:28:53;5.13;;;1.40;;
42260;SDS011;27926;48.062;7.474;2022-09-21T12:31:29;3.67;;;1.10;;
42260;SDS011;27926;48.062;7.474;2022-09-21T12:36:31;2.60;;;1.10;;
42260;SDS011;27926;48.062;7.474;2022-09-21T12:42:25;3.85;;;1.23;;
42260;SDS011;27926;48.062;7.474;2022-09-21T12:44:52;3.15;;;1.02;;
42260;SDS011;27926;48.062;7.474;2022-09-21T12:47:30;4.50;;;1.10;;
42260;SDS011;27926;48.062;7.474;2022-09-21T12:50:18;2.97;;;0.75;;
42260;SDS011;27926;48.062;7.474;2022-09-21T12:52:49;10.57;;;1.10;;
42260;SDS011;27926;48.062;7.474;2022-09-21T12:55:22;4.85;;;1.00;;
42260;SDS011;27926;48.062;7.474;2022-09-21T12:58:15;3.45;;;0.90;;
42260;SDS011;27926;48.062;7.474;2022-09-21T13:03:37;5.10;;;1.35;;
42260;SDS011;27926;48.062;7.474;2022-09-21T13:08:59;3.03;;;1.00;;
42260;SDS011;27926;48.062;7.474;2022-09-21T13:11:24;2.47;;;0.90;;
42260;SDS011;27926;48.062;7.474;2022-09-21T13:13:51;2.15;;;0.82;;
42260;SDS011;27926;48.062;7.474;2022-09-21T13:16:26;3.58;;;1.08;;
42260;SDS011;27926;48.062;7.474;2022-09-21T13:19:15;2.40;;;0.80;;
42260;SDS011;27926;48.062;7.474;2022-09-21T13:21:43;2.85;;;1.05;;
42260;SDS011;27926;48.062;7.474;2022-09-21T13:24:24;2.08;;;0.88;;
42260;SDS011;27926;48.062;7.474;2022-09-21T13:26:53;1.35;;;0.60;;
42260;SDS011;27926;48.062;7.474;2022-09-21T13:31:52;3.88;;;1.13;;
42260;SDS011;27926;48.062;7.474;2022-09-21T13:34:43;5.40;;;0.98;;
42260;SDS011;27926;48.062;7.474;2022-09-21T13:44:54;3.22;;;0.73;;
42260;SDS011;27926;48.062;7.474;2022-09-21T13:47:48;1.73;;;0.77;;
42260;SDS011;27926;48.062;7.474;2022-09-21T13:50:26;6.13;;;1.17;;
42260;SDS011;27926;48.062;7.474;2022-09-21T13:52:55;7.90;;;0.90;;
42260;SDS011;27926;48.062;7.474;2022-09-21T13:55:32;3.90;;;1.10;;
42260;SDS011;27926;48.062;7.474;2022-09-21T13:58:04;7.32;;;0.82;;
42260;SDS011;27926;48.062;7.474;2022-09-21T14:00:35;2.42;;;0.80;;
42260;SDS011;27926;48.062;7.474;2022-09-21T14:03:05;3.47;;;0.57;;
42260;SDS011;27926;48.062;7.474;2022-09-21T14:05:47;3.22;;;0.70;;
42260;SDS011;27926;48.062;7.474;2022-09-21T14:10:39;1.98;;;0.65;;
42260;SDS011;27926;48.062;7.474;2022-09-21T14:13:27;16.27;;;2.72;;
42260;SDS011;27926;48.062;7.474;2022-09-21T14:15:53;3.40;;;0.75;;
42260;SDS011;27926;48.062;7.474;2022-09-21T14:18:19;3.30;;;0.90;;
42260;SDS011;27926;48.062;7.474;2022-09-21T14:23:31;8.23;;;0.90;;
42260;SDS011;27926;48.062;7.474;2022-09-21T14:25:59;6.25;;;1.30;;
42260;SDS011;27926;48.062;7.474;2022-09-21T14:28:47;6.97;;;1.02;;
42260;SDS011;27926;48.062;7.474;2022-09-21T14:31:17;4.65;;;1.00;;
42260;SDS011;27926;48.062;7.474;2022-09-21T14:33:49;5.45;;;1.52;;
42260;SDS011;27926;48.062;7.474;2022-09-21T14:36:25;6.00;;;0.75;;
42260;SDS011;27926;48.062;7.474;2022-09-21T14:38:58;2.55;;;0.95;;
42260;SDS011;27926;48.062;7.474;2022-09-21T14:41:30;3.58;;;0.60;;
42260;SDS011;27926;48.062;7.474;2022-09-21T14:44:01;2.65;;;1.08;;
42260;SDS011;27926;48.062;7.474;2022-09-21T14:46:37;10.10;;;1.20;;
42260;SDS011;27926;48.062;7.474;2022-09-21T14:55:02;3.47;;;1.08;;
42260;SDS011;27926;48.062;7.474;2022-09-21T14:57:52;4.60;;;1.25;;
42260;SDS011;27926;48.062;7.474;2022-09-21T15:00:43;11.98;;;1.45;;
42260;SDS011;27926;48.062;7.474;2022-09-21T15:05:58;3.42;;;0.70;;
42260;SDS011;27926;48.062;7.474;2022-09-21T15:09:06;3.70;;;1.23;;
42260;SDS011;27926;48.062;7.474;2022-09-21T15:12:06;3.78;;;0.65;;
42260;SDS011;27926;48.062;7.474;2022-09-21T15:14:36;2.75;;;0.75;;
42260;SDS011;27926;48.062;7.474;2022-09-21T15:17:25;4.72;;;0.70;;
42260;SDS011;27926;48.062;7.474;2022-09-21T15:19:56;2.22;;;0.57;;
42260;SDS011;27926;48.062;7.474;2022-09-21T15:22:41;1.75;;;0.77;;
42260;SDS011;27926;48.062;7.474;2022-09-21T15:25:10;3.83;;;1.02;;
42260;SDS011;27926;48.062;7.474;2022-09-21T15:27:36;6.65;;;0.57;;
42260;SDS011;27926;48.062;7.474;2022-09-21T15:30:02;3.47;;;1.38;;
42260;SDS011;27926;48.062;7.474;2022-09-21T15:32:39;1.58;;;0.70;;
42260;SDS011;27926;48.062;7.474;2022-09-21T15:35:42;6.40;;;1.15;;
42260;SDS011;27926;48.062;7.474;2022-09-21T15:38:00;2.05;;;0.75;;
42260;SDS011;27926;48.062;7.474;2022-09-21T15:43:05;1.60;;;0.68;;
42260;SDS011;27926;48.062;7.474;2022-09-21T15:46:16;2.50;;;0.57;;
42260;SDS011;27926;48.062;7.474;2022-09-21T15:48:36;3.47;;;1.02;;
42260;SDS011;27926;48.062;7.474;2022-09-21T15:53:33;4.00;;;1.23;;
42260;SDS011;27926;48.062;7.474;2022-09-21T15:56:02;1.95;;;0.90;;
42260;SDS011;27926;48.062;7.474;2022-09-21T15:58:32;2.25;;;0.70;;
42260;SDS011;27926;48.062;7.474;2022-09-21T16:01:00;4.35;;;0.90;;
42260;SDS011;27926;48.062;7.474;2022-09-21T16:03:25;1.67;;;0.75;;
42260;SDS011;27926;48.062;7.474;2022-09-21T16:05:51;1.85;;;0.47;;
42260;SDS011;27926;48.062;7.474;2022-09-21T16:08:25;7.53;;;0.98;;
42260;SDS011;27926;48.062;7.474;2022-09-21T16:10:51;7.38;;;0.80;;
42260;SDS011;27926;48.062;7.474;2022-09-21T16:13:32;4.40;;;0.90;;
42260;SDS011;27926;48.062;7.474;2022-09-21T16:16:15;0.80;;;0.55;;
42260;SDS011;27926;48.062;7.474;2022-09-21T16:18:41;3.08;;;0.70;;
42260;SDS011;27926;48.062;7.474;2022-09-21T16:21:13;3.72;;;0.95;;
42260;SDS011;27926;48.062;7.474;2022-09-21T16:23:51;3.22;;;0.93;;
42260;SDS011;27926;48.062;7.474;2022-09-21T16:26:39;1.58;;;0.73;;
42260;SDS011;27926;48.062;7.474;2022-09-21T16:31:43;3.42;;;0.70;;
42260;SDS011;27926;48.062;7.474;2022-09-21T16:34:29;2.17;;;0.60;;
42260;SDS011;27926;48.062;7.474;2022-09-21T16:36:56;4.72;;;0.68;;
42260;SDS011;27926;48.062;7.474;2022-09-21T16:39:20;3.97;;;0.73;;
42260;SDS011;27926;48.062;7.474;2022-09-21T16:41:47;6.07;;;1.20;;
42260;SDS011;27926;48.062;7.474;2022-09-21T16:44:19;4.43;;;0.40;;
42260;SDS011;27926;48.062;7.474;2022-09-21T16:46:46;6.47;;;0.68;;
42260;SDS011;27926;48.062;7.474;2022-09-21T16:49:14;2.50;;;0.80;;
42260;SDS011;27926;48.062;7.474;2022-09-21T16:51:43;1.33;;;0.65;;
42260;SDS011;27926;48.062;7.474;2022-09-21T16:54:10;6.38;;;0.65;;
42260;SDS011;27926;48.062;7.474;2022-09-21T16:56:34;5.53;;;0.70;;
42260;SDS011;27926;48.062;7.474;2022-09-21T16:58:59;4.78;;;0.90;;
42260;SDS011;27926;48.062;7.474;2022-09-21T17:01:26;3.13;;;1.30;;
42260;SDS011;27926;48.062;7.474;2022-09-21T17:03:51;2.08;;;0.55;;
42260;SDS011;27926;48.062;7.474;2022-09-21T17:06:16;3.67;;;0.98;;
42260;SDS011;27926;48.062;7.474;2022-09-21T17:08:42;1.27;;;0.70;;
42260;SDS011;27926;48.062;7.474;2022-09-21T17:11:09;4.90;;;1.00;;
42260;SDS011;27926;48.062;7.474;2022-09-21T17:13:33;7.93;;;1.10;;
42260;SDS011;27926;48.062;7.474;2022-09-21T17:15:58;3.20;;;0.77;;
42260;SDS011;27926;48.062;7.474;2022-09-21T17:18:24;7.70;;;0.82;;
42260;SDS011;27926;48.062;7.474;2022-09-21T17:20:48;1.85;;;0.60;;
42260;SDS011;27926;48.062;7.474;2022-09-21T17:23:13;3.38;;;0.70;;
42260;SDS011;27926;48.062;7.474;2022-09-21T17:25:38;2.92;;;0.82;;
42260;SDS011;27926;48.062;7.474;2022-09-21T17:28:11;1.70;;;0.55;;
42260;SDS011;27926;48.062;7.474;2022-09-21T17:30:40;3.00;;;0.85;;
42260;SDS011;27926;48.062;7.474;2022-09-21T17:33:06;3.50;;;0.60;;
42260;SDS011;27926;48.062;7.474;2022-09-21T17:35:37;5.13;;;0.70;;
42260;SDS011;27926;48.062;7.474;2022-09-21T17:38:04;6.47;;;0.73;;
42260;SDS011;27926;48.062;7.474;2022-09-21T17:40:29;7.88;;;0.95;;
42260;SDS011;27926;48.062;7.474;2022-09-21T17:42:59;10.52;;;1.35;;
42260;SDS011;27926;48.062;7.474;2022-09-21T17:45:43;2.35;;;0.63;;